Jamestown, North Dakota
Current Conditions -  °F | °C
As of 11:56 AM on Monday 24 Nov 2014 (Local Time) from KJMS Reporting Station
Clear Clear  
Wind Chill: -3°   Ceiling: Unl
Heat Index: 16°   Visibility: 10mi
Dew Point:   Wind: 25mph
Humidity: 65%   Direction: 330°NNW
Pressure: 29.81"   Gusts: 35mph
Location:  46.91°N, 98.71°W
Report Text: KJMS 241756Z AUTO 33022G30KT 10SM CLR M09/M14 A2981 RMK AO2 PK WND 33031/1728 SLP123 60000 T10891144 11089 21133 51020
Loading
Personal Weather Stations






























Interactive Weather Map New forecast layout! Learn more

10-Day Weather Forecast

Advertisements
Track Severe Weather on mobile